Latest Weather Observations for Milingimbi

IDD60801

Issued at 9:01 pm CST Saturday 27 August 2016 (issued every 30 minutes, with the page automatically refreshed every 10 minutes)

About weather observations | Map of weather stations | Latest weather observations for NT | Other Formats
Station Details ID: 014404 Name: MILINGIMBI AIRPORT Lat: -12.09 Lon: 134.89 Height: 15.0 m
Data from the previous 72 hours. | See also: Recent months at Milingimbi
Date/Time
CST
Temp
°C
App
Temp
°C
Dew
Point
°C
Rel
Hum
%
Delta-T
°C
Wind Press
QNH
hPa
Press
MSL
hPa
Rain since
9am
mm
Dir  Spd
km/h
Gust
km/h
Spd
kts
Gust
kts
27/09:00pm 25.3 21.1 13.5 48 6.9 SE 28 39 15 21 1015.3 1015.2 0.0
27/08:30pm 26.1 22.0 13.9 47 7.2 SE 28 43 15 23 1014.7 - 0.0
27/08:00pm 26.9 23.6 14.0 45 7.7 ESE 24 35 13 19 1014.0 - 0.0
27/07:30pm 26.7 26.3 17.2 56 5.9 E 15 20 8 11 1013.4 - 0.0
27/07:00pm 26.6 26.1 17.9 59 5.5 ENE 17 24 9 13 1012.8 - 0.0
27/06:30pm 27.0 27.0 18.0 58 5.7 ENE 15 26 8 14 1012.5 - 0.0
27/06:00pm 27.6 27.2 18.0 55 6.1 ENE 17 24 9 13 1012.4 1012.3 0.0
27/05:30pm 28.5 27.8 17.4 51 7.0 ENE 17 28 9 15 1012.2 - 0.0
27/05:00pm 29.6 29.2 17.1 47 7.9 NE 15 26 8 14 1012.3 - 0.0
27/04:30pm 29.8 28.0 15.9 43 8.6 NNE 20 28 11 15 1011.9 - 0.0
27/04:00pm 31.6 30.0 13.8 34 10.8 ENE 15 22 8 12 1011.8 - 0.0
27/03:30pm 31.9 29.7 12.2 30 11.6 ENE 15 22 8 12 1011.9 - 0.0
27/03:00pm 32.7 29.8 12.3 28 12.1 E 19 26 10 14 1012.2 1012.1 0.0
27/02:30pm 32.3 29.7 12.0 29 12.0 E 17 26 9 14 1012.6 - 0.0
27/02:00pm 31.6 28.8 11.4 29 11.8 E 17 26 9 14 1013.2 - 0.0
27/01:30pm 31.2 28.6 12.1 31 11.2 E 17 24 9 13 1013.7 - 0.0
27/01:00pm 31.2 28.8 12.5 31 11.1 ESE 17 24 9 13 1014.4 - 0.0
27/12:30pm 30.8 28.3 12.2 32 10.9 ESE 17 26 9 14 1015.0 - 0.0
27/12:00pm 29.7 27.0 11.7 33 10.4 ESE 17 24 9 13 1015.5 1015.4 0.0
27/11:30am 30.1 26.3 12.5 34 10.4 ESE 24 32 13 17 1016.2 - 0.0
27/11:00am 29.4 26.6 13.2 37 9.6 SE 20 32 11 17 1016.8 - 0.0
27/10:30am 27.7 24.2 13.3 41 8.5 SE 24 33 13 18 1016.9 - 0.0
27/10:00am 26.8 23.9 13.9 45 7.7 ESE 22 32 12 17 1017.2 - 0.0
27/09:30am 25.7 22.9 14.2 49 6.8 SE 22 30 12 16 1017.2 - 0.0
27/09:00am 25.1 22.3 14.3 51 6.4 ESE 22 33 12 18 1017.4 1017.3 0.0
27/08:30am 23.3 21.3 14.0 56 5.4 SE 17 24 9 13 1017.3 - 0.0
27/08:00am 22.2 20.9 13.8 59 4.9 SSE 13 19 7 10 1017.2 - 0.0
27/07:30am 21.5 20.4 14.2 63 4.3 SSE 13 19 7 10 1016.9 - 0.0
27/07:00am 21.2 19.9 14.8 67 3.8 SE 15 20 8 11 1016.5 - 0.0
27/06:30am 21.4 20.7 15.5 69 3.5 SE 13 17 7 9 1016.0 - 0.0
27/06:00am 22.7 21.1 15.0 61 4.6 ESE 17 30 9 16 1015.7 1015.6 0.0
27/05:30am 22.7 20.5 15.0 61 4.6 ESE 20 32 11 17 1015.4 - 0.0
27/05:00am 22.4 20.3 15.3 64 4.2 ESE 20 33 11 18 1015.1 - 0.0
27/04:30am 22.5 20.5 15.4 64 4.2 ESE 20 32 11 17 1015.1 - 0.0
27/04:00am 22.5 20.6 15.1 63 4.4 ESE 19 28 10 15 1015.0 - 0.0
27/03:30am 22.5 21.4 15.4 64 4.2 ESE 15 24 8 13 1014.8 - 0.0
27/03:00am 22.5 20.6 15.1 63 4.4 ESE 19 26 10 14 1014.8 1014.7 0.0
27/02:30am 22.7 20.6 14.8 61 4.7 ESE 19 28 10 15 1014.9 - 0.0
27/02:00am 22.8 20.3 14.1 58 5.1 ESE 20 32 11 17 1015.2 - 0.0
27/01:30am 23.0 20.3 13.5 55 5.5 ESE 20 32 11 17 1015.6 - 0.0
27/01:00am 23.1 21.6 15.2 61 4.7 ESE 17 26 9 14 1015.6 - 0.0
27/12:30am 23.2 21.1 14.7 58 5.0 ESE 19 28 10 15 1016.1 - 0.0
27/12:00am 23.4 21.3 14.7 58 5.2 ESE 19 26 10 14 1016.2 1016.1 0.0
 
Date/Time
CST
Temp
°C
App
Temp
°C
Dew
Point
°C
Rel
Hum
%
Delta-T
°C
Wind Press
QNH
hPa
Press
MSL
hPa
Rain since
9am
mm
Dir  Spd
km/h
Gust
km/h
Spd
kts
Gust
kts
26/11:30pm 23.3 21.2 14.6 58 5.1 ESE 19 24 10 13 1016.1 - 0.0
26/11:00pm 23.4 21.1 14.1 56 5.5 SE 19 30 10 16 1016.0 - 0.0
26/10:30pm 23.7 21.2 14.1 55 5.6 SE 20 28 11 15 1015.7 - 0.0
26/10:00pm 24.1 21.5 14.8 56 5.5 SE 22 32 12 17 1015.7 - 0.0
26/09:30pm 24.7 21.7 14.8 54 5.9 SE 24 37 13 20 1015.3 - 0.0
26/09:00pm 25.5 21.8 14.9 52 6.4 SE 28 35 15 19 1014.9 1014.8 0.0
26/08:30pm 26.1 22.5 14.2 48 7.1 SE 26 35 14 19 1014.3 - 0.0
26/08:00pm 26.9 23.7 14.3 46 7.5 SE 24 35 13 19 1013.9 - 0.0
26/07:30pm 27.6 25.6 14.9 45 7.7 SE 19 26 10 14 1013.4 - 0.0
26/07:00pm 27.0 28.5 18.8 60 5.3 E 9 13 5 7 1012.9 - 0.0
26/06:30pm 27.0 26.8 18.6 60 5.4 ENE 17 28 9 15 1012.4 - 0.0
26/06:00pm 27.5 27.9 18.2 57 5.9 ENE 13 20 7 11 1012.1 1012.0 0.0
26/05:30pm 28.0 27.2 18.1 55 6.3 ENE 19 30 10 16 1011.9 - 0.0
26/05:00pm 28.7 27.9 17.9 52 6.9 NE 19 30 10 16 1011.7 - 0.0
26/04:30pm 29.4 29.1 18.2 51 7.2 ENE 17 28 9 15 1011.6 - 0.0
26/04:00pm 29.9 29.2 18.3 49 7.4 ENE 19 24 10 13 1011.7 - 0.0
26/03:30pm 30.2 29.4 18.0 48 7.8 NE 19 28 10 15 1011.7 - 0.0
26/03:00pm 30.9 30.8 17.9 45 8.3 NE 15 26 8 14 1012.1 1012.0 0.0
26/02:30pm 30.8 30.2 18.5 47 7.9 E 19 28 10 15 1012.5 - 0.0
26/02:00pm 30.8 29.5 16.8 43 8.8 E 19 32 10 17 1012.8 - 0.0
26/01:30pm 30.4 29.1 16.8 44 8.6 E 19 32 10 17 1013.3 - 0.0
26/01:00pm 30.0 28.6 17.1 46 8.1 E 20 32 11 17 1013.8 - 0.0
26/12:30pm 30.5 29.5 17.9 47 8.1 ESE 20 35 11 19 1014.2 - 0.0
26/12:00pm 29.7 28.8 17.8 48 7.6 E 19 28 10 15 1014.6 1014.5 0.0
26/11:30am 30.0 29.5 17.8 48 7.8 ESE 17 28 9 15 1015.2 - 0.0
26/11:00am 29.0 26.2 17.2 49 7.4 ESE 28 39 15 21 1015.4 - 0.0
26/10:30am 28.8 25.9 17.0 49 7.4 ESE 28 43 15 23 1015.6 - 0.0
26/10:00am 28.5 25.6 18.0 53 6.7 SE 30 41 16 22 1015.8 - 0.0
26/09:30am 27.5 25.8 19.0 59 5.5 SE 26 37 14 20 1016.0 - 0.0
26/09:00am 26.8 26.7 19.9 66 4.5 SE 20 28 11 15 1015.9 1015.8 0.4
26/08:30am 25.1 25.6 20.1 74 3.2 SE 17 24 9 13 1015.8 - 0.4
26/08:00am 24.5 25.7 20.6 79 2.5 SSE 15 19 8 10 1015.6 - 0.4
26/07:30am 24.0 26.1 20.9 83 2.0 SSE 11 15 6 8 1015.3 - 0.4
26/07:00am 23.9 25.5 20.8 83 2.0 SSE 13 17 7 9 1014.9 - 0.4
26/06:30am 24.3 26.3 20.8 81 2.3 S 11 17 6 9 1014.5 - 0.4
26/06:00am 24.5 26.0 20.6 79 2.5 SSE 13 19 7 10 1013.7 1013.6 0.4
26/05:30am 24.4 26.4 20.7 80 2.4 SSE 11 15 6 8 1013.4 - 0.4
26/05:00am 24.5 27.1 21.2 82 2.2 SSE 9 13 5 7 1013.1 - 0.4
26/04:30am 24.5 27.1 21.2 82 2.2 SSE 9 13 5 7 1012.8 - 0.4
26/04:00am 24.5 27.1 21.2 82 2.2 SSE 9 11 5 6 1012.7 - 0.4
26/03:30am 24.9 26.9 20.8 78 2.7 SE 11 17 6 9 1012.7 - 0.4
26/03:00am 25.2 26.3 20.5 75 3.1 ESE 15 22 8 12 1012.5 1012.4 0.4
26/02:30am 25.3 25.9 21.0 77 2.8 ESE 19 24 10 13 1012.7 - 0.4
26/02:00am 25.0 25.8 21.3 80 2.4 ESE 19 26 10 14 1012.9 - 0.4
26/01:30am 24.5 25.4 21.6 84 1.9 ESE 19 22 10 12 1012.9 - 0.4
26/01:00am 24.1 27.7 22.4 90 1.1 SSE 7 11 4 6 1013.0 - 0.4
26/12:30am 24.3 28.0 22.6 90 1.1 SSW 7 13 4 7 1013.2 - 0.4
26/12:00am 24.6 26.9 22.1 86 1.7 S 13 17 7 9 1013.2 1013.1 0.4
 
Date/Time
CST
Temp
°C
App
Temp
°C
Dew
Point
°C
Rel
Hum
%
Delta-T
°C
Wind Press
QNH
hPa
Press
MSL
hPa
Rain since
9am
mm
Dir  Spd
km/h
Gust
km/h
Spd
kts
Gust
kts
25/11:30pm 26.0 25.9 21.4 76 3.1 ESE 24 33 13 18 1012.6 - 0.0
25/11:00pm 27.0 29.1 21.7 73 3.5 E 13 20 7 11 1012.7 - 0.0
25/10:30pm 27.0 29.3 22.0 74 3.4 ENE 13 20 7 11 1012.5 - 0.0
25/10:00pm 26.6 29.8 22.4 78 2.8 ENE 9 15 5 8 1012.4 - 0.0
25/09:30pm 26.3 29.8 22.2 78 2.8 ENE 7 13 4 7 1012.1 - 0.0
25/09:00pm 26.1 29.3 21.7 77 2.9 E 7 11 4 6 1011.9 1011.8 0.0
25/08:30pm 26.1 29.7 22.4 80 2.5 ENE 7 9 4 5 1011.3 - 0.0
25/08:00pm 26.1 29.8 22.6 81 2.4 NE 7 13 4 7 1010.5 - 0.0
25/07:30pm 26.2 29.4 22.3 79 2.6 NNE 9 15 5 8 1010.1 - 0.0
25/07:00pm 26.4 30.0 22.3 78 2.8 NNE 7 11 4 6 1009.8 - 0.0
25/06:30pm 26.7 29.9 22.3 77 3.0 NNE 9 15 5 8 1009.5 - 0.0
25/06:00pm 27.2 29.8 21.9 73 3.6 NNE 11 17 6 9 1009.4 1009.3 0.0
25/05:30pm 27.7 30.3 22.0 71 3.8 N 11 17 6 9 1009.2 - 0.0
25/05:00pm 28.2 30.8 22.0 69 4.2 N 11 17 6 9 1009.1 - 0.0
25/04:30pm 28.3 30.5 21.1 65 4.8 N 11 19 6 10 1008.9 - 0.0
25/04:00pm 29.1 31.0 21.3 62 5.2 N 13 20 7 11 1008.8 - 0.0
25/03:30pm 29.7 31.5 21.1 60 5.7 N 13 20 7 11 1008.9 - 0.0
25/03:00pm 29.8 31.6 21.2 60 5.8 N 13 22 7 12 1009.2 1009.1 0.0
25/02:30pm 30.6 32.7 21.7 59 6.0 N 13 20 7 11 1009.4 - 0.0
25/02:00pm 30.5 32.1 20.7 55 6.5 N 13 20 7 11 1009.7 - 0.0
25/01:30pm 30.1 32.2 21.7 60 5.7 N 13 19 7 10 1010.0 - 0.0
25/01:00pm 30.3 31.9 20.8 56 6.3 N 13 20 7 11 1010.2 - 0.0
25/12:30pm 30.0 31.5 20.5 56 6.3 N 13 20 7 11 1010.7 - 0.0
25/12:00pm 30.2 32.2 20.7 56 6.3 N 11 17 6 9 1011.1 1011.0 0.0
25/11:30am 29.3 31.0 21.0 61 5.5 N 13 20 7 11 1011.5 - 0.0
25/11:00am 29.8 30.8 18.6 51 7.2 N 11 17 6 9 1012.0 - 0.0
25/10:30am 29.1 31.1 20.8 61 5.5 N 11 19 6 10 1012.3 - 0.0
25/10:00am 28.5 30.5 21.5 66 4.7 NNE 13 20 7 11 1012.5 - 0.0
25/09:30am 28.5 30.6 20.2 60 5.5 N 9 17 5 9 1012.4 - 0.0
25/09:00am 28.1 30.4 21.4 67 4.5 NNE 11 15 6 8 1012.3 1012.2 0.0
25/08:30am 27.8 30.9 22.1 71 3.8 N 9 15 5 8 1012.1 - 0.0
25/08:00am 26.8 30.2 22.0 75 3.2 NNW 7 11 4 6 1011.7 - 0.0
25/07:30am 24.8 29.6 22.1 85 1.8 CALM 0 0 0 0 1011.4 - 0.0
25/07:00am 23.0 27.4 21.4 91 1.1 CALM 0 0 0 0 1011.0 - 0.0
25/06:30am 22.7 26.9 21.0 90 1.1 CALM 0 0 0 0 1010.8 - 0.0
25/06:00am 23.0 27.4 21.3 90 1.1 CALM 0 6 0 3 1010.6 1010.5 0.0
25/05:30am 22.9 27.1 21.0 89 1.2 CALM 0 0 0 0 1010.4 - 0.0
25/05:00am 23.5 26.9 21.6 89 1.3 NW 6 9 3 5 1010.2 - 0.0
25/04:30am 23.6 28.1 21.5 88 1.4 CALM 0 4 0 2 1010.2 - 0.0
25/04:00am 23.8 28.3 21.5 87 1.5 CALM 0 0 0 0 1010.3 - 0.0
25/03:30am 24.2 28.7 21.5 85 1.8 CALM 0 0 0 0 1010.2 - 0.0
25/03:00am 24.5 29.0 21.6 84 1.9 CALM 0 4 0 2 1010.5 1010.4 0.0
25/02:30am 24.7 29.2 21.6 83 2.1 CALM 0 0 0 0 1010.5 - 0.0
25/02:00am 25.2 29.9 21.9 82 2.2 CALM 0 6 0 3 1010.5 - 0.0
25/01:30am 25.0 28.6 22.1 84 1.9 N 6 7 3 4 1010.5 - 0.0
25/01:00am 24.5 29.0 21.6 84 1.9 CALM 0 6 0 3 1010.8 - 0.0
25/12:30am 24.3 28.6 21.2 83 2.0 CALM 0 0 0 0 1011.0 - 0.0
25/12:00am 24.5 28.8 21.2 82 2.2 CALM 0 6 0 3 1010.9 1010.8 0.0
 
Date/Time
CST
Temp
°C
App
Temp
°C
Dew
Point
°C
Rel
Hum
%
Delta-T
°C
Wind Press
QNH
hPa
Press
MSL
hPa
Rain since
9am
mm
Dir  Spd
km/h
Gust
km/h
Spd
kts
Gust
kts
24/11:30pm 25.0 28.3 21.5 81 2.3 NNW 6 7 3 4 1010.8 - 0.0
24/11:00pm 25.2 28.3 21.5 80 2.5 NNW 7 9 4 5 1010.6 - 0.0
24/10:30pm 25.4 28.7 21.5 79 2.6 NW 6 9 3 5 1010.6 - 0.0
24/10:00pm 25.5 28.6 21.4 78 2.7 NNW 7 9 4 5 1010.4 - 0.0
24/09:30pm 25.7 28.4 21.4 77 2.9 NNW 9 13 5 7 1010.1 - 0.0

Other Formats:

Comma delimited format used in spreadsheet applications
http://www.bom.gov.au/fwo/IDD60801/IDD60801.94140.axf

JavaScript Object Notation format (JSON) in row-major order
http://www.bom.gov.au/fwo/IDD60801/IDD60801.94140.json